createdAt,value
2023-04-05T00:02:14.068Z,102407.47
2023-04-05T00:04:50.217Z,102404.06
2023-04-05T00:07:17.457Z,102406.75
2023-04-05T00:09:43.950Z,102406.78
2023-04-05T00:12:10.681Z,102404.19
2023-04-05T00:14:37.184Z,102410.31
2023-04-05T00:17:04.224Z,102402.50
2023-04-05T00:19:34.033Z,102379.31
2023-04-05T00:22:00.755Z,102396.66
2023-04-05T00:24:29.414Z,102411.34
2023-04-05T00:26:56.828Z,102402.63
2023-04-05T00:29:23.364Z,102405.34
2023-04-05T00:31:50.512Z,102407.09
2023-04-05T00:34:16.993Z,102382.94
2023-04-05T00:36:43.414Z,102395.84
2023-04-05T00:39:09.900Z,102408.91
2023-04-05T00:41:38.700Z,102390.66
2023-04-05T00:44:05.943Z,102405.44
2023-04-05T00:46:35.029Z,102403.75
2023-04-05T00:49:01.683Z,102387.34
2023-04-05T00:51:28.520Z,102401.22
2023-04-05T00:53:55.389Z,102395.16
2023-04-05T00:56:25.295Z,102396.09
2023-04-05T00:58:54.224Z,102393.50
2023-04-05T01:01:23.520Z,102380.63
2023-04-05T01:03:54.075Z,102391.75
2023-04-05T01:06:35.922Z,102390.03
2023-04-05T01:09:08.643Z,102383.03
2023-04-05T01:11:39.248Z,102384.81
2023-04-05T01:14:06.240Z,102338.25
2023-04-05T01:16:32.728Z,102371.06
2023-04-05T01:18:59.439Z,102384.94
2023-04-05T01:21:37.866Z,102372.75
2023-04-05T01:24:16.499Z,102366.69
2023-04-05T01:27:08.024Z,102365.84
2023-04-05T01:29:56.057Z,102366.75
2023-04-05T01:32:46.465Z,102359.84
2023-04-05T01:35:29.604Z,102337.44
2023-04-05T01:38:01.752Z,102351.31
2023-04-05T01:40:29.241Z,102360.78
2023-04-05T01:42:55.861Z,102357.34
2023-04-05T01:45:22.320Z,102353.88
2023-04-05T01:47:48.787Z,102347.78
2023-04-05T01:50:15.825Z,102339.19
2023-04-05T01:52:42.261Z,102306.31
2023-04-05T01:55:08.852Z,102308.88
2023-04-05T01:57:35.402Z,102315.88
2023-04-05T02:00:01.912Z,102344.47
2023-04-05T02:02:28.398Z,102338.38
2023-04-05T02:04:54.861Z,102337.53
2023-04-05T02:07:27.316Z,102315.25
2023-04-05T02:09:53.881Z,102314.34
2023-04-05T02:12:20.353Z,102313.50
2023-04-05T02:14:46.754Z,102330.81
2023-04-05T02:17:13.354Z,102301.38
2023-04-05T02:19:45.748Z,102310.03
2023-04-05T02:22:12.538Z,102329.91
2023-04-05T02:24:39.021Z,102334.28
2023-04-05T02:27:05.543Z,102326.47
2023-04-05T02:29:31.961Z,102323.03
2023-04-05T02:31:58.735Z,102336.03
2023-04-05T02:34:25.848Z,102328.22
2023-04-05T02:36:53.067Z,102331.66
2023-04-05T02:39:19.686Z,102328.34
2023-04-05T02:41:46.561Z,102330.75
2023-04-05T02:44:13.653Z,102329.91
2023-04-05T02:46:40.588Z,102332.50
2023-04-05T02:49:09.784Z,102328.97
2023-04-05T02:51:36.296Z,102327.25
2023-04-05T02:54:03.372Z,102310.84
2023-04-05T02:56:30.206Z,102330.75
2023-04-05T02:58:56.631Z,102323.94
2023-04-05T03:01:24.006Z,102323.81
2023-04-05T03:03:51.035Z,102320.38
2023-04-05T03:06:17.607Z,102301.41
2023-04-05T03:08:44.149Z,102321.31
2023-04-05T03:11:11.809Z,102320.47
2023-04-05T03:13:38.726Z,102324.00
2023-04-05T03:16:05.942Z,102316.22
2023-04-05T03:18:32.780Z,102313.56
2023-04-05T03:20:59.438Z,102315.34
2023-04-05T03:23:29.667Z,102309.28
2023-04-05T03:25:59.872Z,102317.16
2023-04-05T03:28:26.455Z,102315.31
2023-04-05T03:30:53.074Z,102306.69
2023-04-05T03:33:20.529Z,102300.59
2023-04-05T03:35:47.689Z,102302.31
2023-04-05T03:38:14.202Z,102293.69
2023-04-05T03:40:40.780Z,102266.03
2023-04-05T03:43:07.184Z,102310.94
2023-04-05T03:45:34.082Z,102308.34
2023-04-05T03:48:01.061Z,102305.75
2023-04-05T03:50:27.592Z,102310.97
2023-04-05T03:52:54.254Z,102304.94
2023-04-05T03:55:20.869Z,102309.41
2023-04-05T03:57:47.679Z,102304.97
2023-04-05T04:00:14.698Z,102305.91
2023-04-05T04:02:43.617Z,102296.31
2023-04-05T04:05:11.254Z,102302.59
2023-04-05T04:07:38.003Z,102312.13
2023-04-05T04:10:05.598Z,102307.78
2023-04-05T04:12:32.168Z,102276.66
2023-04-05T04:14:58.909Z,102280.97
2023-04-05T04:17:34.436Z,102294.84
2023-04-05T04:20:01.062Z,102289.53
2023-04-05T04:22:33.003Z,102266.19
2023-04-05T04:25:02.674Z,102286.03
2023-04-05T04:27:30.440Z,102280.81
2023-04-05T04:30:01.852Z,102288.75
2023-04-05T04:32:47.675Z,102283.44
2023-04-05T04:35:18.214Z,102292.28
2023-04-05T04:37:52.856Z,102279.91
2023-04-05T04:40:19.345Z,102282.50
2023-04-05T04:42:48.717Z,102285.00
2023-04-05T04:45:18.079Z,102285.75
2023-04-05T04:47:45.403Z,102288.28
2023-04-05T04:50:12.108Z,102217.34
2023-04-05T04:52:40.219Z,102259.63
2023-04-05T04:55:09.182Z,102281.81
2023-04-05T04:57:36.007Z,102278.25
2023-04-05T05:00:02.482Z,102278.88
2023-04-05T05:02:31.238Z,102282.19
2023-04-05T05:04:58.240Z,102262.00
2023-04-05T05:07:24.695Z,102244.53
2023-04-05T05:09:52.433Z,102270.25
2023-04-05T05:12:19.350Z,102276.94
2023-04-05T05:14:45.737Z,102277.63
2023-04-05T05:17:12.322Z,102286.94
2023-04-05T05:19:38.980Z,102287.53
2023-04-05T05:22:05.871Z,102284.63
2023-04-05T05:24:32.449Z,102278.31
2023-04-05T05:26:58.861Z,102283.16
2023-04-05T05:29:25.602Z,102262.97
2023-04-05T05:31:52.149Z,102276.38
2023-04-05T05:34:19.298Z,102244.16
2023-04-05T05:36:46.352Z,102267.88
2023-04-05T05:39:12.909Z,102265.81
2023-04-05T05:41:39.509Z,102250.88
2023-04-05T05:44:06.764Z,102253.94
2023-04-05T05:46:33.371Z,102242.31
2023-04-05T05:48:59.801Z,102244.75
2023-04-05T05:51:26.375Z,102247.59
2023-04-05T05:53:52.819Z,102266.97
2023-04-05T05:56:19.316Z,102264.72
2023-04-05T05:58:46.376Z,102231.47
2023-04-05T06:01:13.024Z,102260.16
2023-04-05T06:03:39.641Z,102258.81
2023-04-05T06:06:08.368Z,102257.31
2023-04-05T06:08:34.811Z,102231.78
2023-04-05T06:11:05.045Z,102238.03
2023-04-05T06:13:31.361Z,102247.34
2023-04-05T06:15:57.950Z,102254.78
2023-04-05T06:18:24.393Z,102248.09
2023-04-05T06:20:50.998Z,102203.47
2023-04-05T06:23:17.393Z,102228.06
2023-04-05T06:25:43.973Z,102236.97
2023-04-05T06:28:10.524Z,102232.09
2023-04-05T06:30:37.217Z,102229.75
2023-04-05T06:33:03.866Z,102236.22
2023-04-05T06:35:30.588Z,102233.88
2023-04-05T06:37:57.111Z,102189.25
2023-04-05T06:40:23.597Z,102217.75
2023-04-05T06:42:50.070Z,102234.97
2023-04-05T06:45:16.725Z,102211.75
2023-04-05T06:47:43.293Z,102231.78
2023-04-05T06:50:10.535Z,102233.97
2023-04-05T06:52:39.122Z,102229.84
2023-04-05T06:55:06.435Z,102239.94
2023-04-05T06:57:32.929Z,102236.72
2023-04-05T06:59:59.411Z,102240.50
2023-04-05T07:02:26.068Z,102211.78
2023-04-05T07:04:53.315Z,102227.84
2023-04-05T07:07:19.776Z,102220.75
2023-04-05T07:09:46.248Z,102204.31
2023-04-05T07:12:12.796Z,102232.09
2023-04-05T07:14:39.454Z,102229.63
2023-04-05T07:17:07.033Z,102214.66
2023-04-05T07:19:33.916Z,102237.28
2023-04-05T07:22:01.123Z,102240.38
2023-04-05T07:24:27.583Z,102238.28
2023-04-05T07:26:54.304Z,102233.59
2023-04-05T07:29:20.913Z,102135.88
2023-04-05T07:31:47.353Z,102245.56
2023-04-05T07:34:14.044Z,102237.53
2023-04-05T07:36:40.965Z,102198.53
2023-04-05T07:39:07.530Z,102231.81
2023-04-05T07:41:35.531Z,102219.44
2023-04-05T07:44:02.084Z,102247.97
2023-04-05T07:46:29.817Z,102246.63
2023-04-05T07:48:56.528Z,102240.63
2023-04-05T07:51:22.954Z,102250.41
2023-04-05T07:53:49.392Z,102244.34
2023-04-05T07:56:15.967Z,102249.16
2023-04-05T07:58:42.413Z,102207.09
2023-04-05T08:01:10.542Z,102240.22
2023-04-05T08:03:39.652Z,102241.63
2023-04-05T08:06:11.520Z,102237.16
2023-04-05T08:08:40.983Z,102240.13
2023-04-05T08:11:07.446Z,102221.13
2023-04-05T08:13:34.019Z,102232.13
2023-04-05T08:16:02.046Z,102232.50
2023-04-05T08:18:29.779Z,102244.66
2023-04-05T08:20:56.707Z,102233.78
2023-04-05T08:23:23.164Z,102237.97
2023-04-05T08:25:50.075Z,102239.03
2023-04-05T08:28:16.559Z,102239.22
2023-04-05T08:30:43.229Z,102228.03
2023-04-05T08:33:10.036Z,102225.56
2023-04-05T08:35:37.221Z,102227.84
2023-04-05T08:38:04.876Z,102230.81
2023-04-05T08:40:43.907Z,102231.78
2023-04-05T08:43:28.515Z,102209.34
2023-04-05T08:45:58.816Z,102223.38
2023-04-05T08:48:28.863Z,102226.94
2023-04-05T08:50:55.863Z,102190.88
2023-04-05T08:53:22.625Z,102217.53
2023-04-05T08:55:53.624Z,102208.41
2023-04-05T08:58:22.494Z,102210.25
2023-04-05T09:00:50.963Z,102217.63
2023-04-05T09:03:23.403Z,102213.94
2023-04-05T09:05:52.913Z,102208.56
2023-04-05T09:08:21.374Z,102211.00
2023-04-05T09:10:50.368Z,102218.56
2023-04-05T09:13:16.842Z,102205.94
2023-04-05T09:15:43.887Z,102206.13
2023-04-05T09:18:23.173Z,102210.53
2023-04-05T09:21:03.823Z,102195.81
2023-04-05T09:23:30.399Z,102206.09
2023-04-05T09:25:56.967Z,102194.97
2023-04-05T09:28:23.482Z,102200.41
2023-04-05T09:30:49.983Z,102171.56
2023-04-05T09:33:21.019Z,102202.81
2023-04-05T09:35:51.392Z,102166.50
2023-04-05T09:38:17.893Z,102174.94
2023-04-05T09:40:46.508Z,102194.41
2023-04-05T09:43:33.672Z,102189.38
2023-04-05T09:46:00.454Z,102158.94
2023-04-05T09:48:57.605Z,102189.88
2023-04-05T09:51:24.252Z,102183.31
2023-04-05T09:54:00.526Z,102186.19
2023-04-05T09:56:28.486Z,102180.84
2023-04-05T09:59:16.987Z,102075.16
2023-04-05T10:01:51.263Z,102178.50
2023-04-05T10:04:19.603Z,102170.16
2023-04-05T10:06:46.081Z,102172.47
2023-04-05T10:09:15.096Z,102164.97
2023-04-05T10:11:43.893Z,102140.16
2023-04-05T10:14:10.621Z,102154.69
2023-04-05T10:17:10.276Z,102161.22
2023-04-05T10:20:07.269Z,102163.25
2023-04-05T10:22:39.177Z,102144.31
2023-04-05T10:25:12.937Z,102155.94
2023-04-05T10:27:46.973Z,102164.31
2023-04-05T10:30:15.650Z,102153.03
2023-04-05T10:33:01.786Z,102147.41
2023-04-05T10:35:40.346Z,102144.09
2023-04-05T10:38:06.904Z,102141.47
2023-04-05T10:40:35.038Z,102139.25
2023-04-05T10:43:03.825Z,102134.00
2023-04-05T10:45:35.148Z,102123.13
2023-04-05T10:48:34.222Z,102127.16
2023-04-05T10:51:01.712Z,102114.72
2023-04-05T10:53:30.688Z,102077.94
2023-04-05T10:55:58.322Z,102113.84
2023-04-05T10:58:26.856Z,102117.56
2023-04-05T11:00:54.692Z,102117.31
2023-04-05T11:03:51.393Z,102117.31
2023-04-05T11:06:24.021Z,102119.97
2023-04-05T11:08:57.065Z,102110.44
2023-04-05T11:11:24.973Z,102106.00
2023-04-05T11:13:56.963Z,102105.28
2023-04-05T11:16:38.563Z,102077.44
2023-04-05T11:19:05.243Z,102106.13
2023-04-05T11:21:31.888Z,102107.16
2023-04-05T11:24:08.226Z,102110.91
2023-04-05T11:26:40.449Z,102101.38
2023-04-05T11:29:07.847Z,102102.47
2023-04-05T11:31:34.387Z,102091.09
2023-04-05T11:34:12.761Z,102083.31
2023-04-05T11:36:45.837Z,102077.56
2023-04-05T11:39:18.387Z,102077.09
2023-04-05T11:41:52.670Z,102071.84
2023-04-05T11:44:19.518Z,102040.16
2023-04-05T11:46:46.875Z,102006.06
2023-04-05T11:49:14.231Z,102063.03
2023-04-05T11:51:48.496Z,102052.63
2023-04-05T11:54:27.670Z,102058.41
2023-04-05T11:56:54.054Z,102060.38
2023-04-05T11:59:21.548Z,102043.69
2023-04-05T12:01:58.357Z,102013.34
2023-04-05T12:04:24.786Z,102052.44
2023-04-05T12:07:09.170Z,102060.78
2023-04-05T12:09:35.871Z,102045.94
2023-04-05T12:12:02.755Z,102033.66
2023-04-05T12:14:29.499Z,102051.88
2023-04-05T12:16:55.888Z,102032.66
2023-04-05T12:19:22.893Z,102049.16
2023-04-05T12:21:49.373Z,101998.53
2023-04-05T12:24:15.923Z,102039.38
2023-04-05T12:26:42.936Z,102045.63
2023-04-05T12:29:09.419Z,102017.66
2023-04-05T12:31:41.321Z,102022.13
2023-04-05T12:34:09.835Z,102036.03
2023-04-05T12:36:37.339Z,102045.31
2023-04-05T12:39:07.780Z,102033.69
2023-04-05T12:41:35.141Z,102021.69
2023-04-05T12:44:27.992Z,102034.34
2023-04-05T12:47:00.690Z,102015.13
2023-04-05T12:49:27.807Z,102003.06
2023-04-05T12:51:54.207Z,102020.69
2023-04-05T12:54:23.032Z,102018.31
2023-04-05T12:56:54.457Z,101997.78
2023-04-05T12:59:22.056Z,102001.41
2023-04-05T13:01:48.904Z,101992.47
2023-04-05T13:04:16.857Z,101993.91
2023-04-05T13:06:46.996Z,102003.19
2023-04-05T13:09:13.454Z,101996.44
2023-04-05T13:11:39.896Z,101976.81
2023-04-05T13:14:06.371Z,101978.00
2023-04-05T13:16:32.873Z,101982.47
2023-04-05T13:19:09.196Z,101965.03
2023-04-05T13:21:35.883Z,101986.91
2023-04-05T13:24:02.939Z,101986.63
2023-04-05T13:26:29.808Z,101981.47
2023-04-05T13:28:56.281Z,101970.47
2023-04-05T13:31:22.757Z,101975.28
2023-04-05T13:33:49.235Z,101974.72
2023-04-05T13:36:18.329Z,101953.66
2023-04-05T13:38:44.732Z,101953.88
2023-04-05T13:41:11.364Z,101980.00
2023-04-05T13:43:37.953Z,101980.19
2023-04-05T13:46:04.647Z,101979.34
2023-04-05T13:48:31.371Z,101972.25
2023-04-05T13:50:57.881Z,101979.50
2023-04-05T13:53:26.019Z,101970.88
2023-04-05T13:55:53.724Z,101918.44
2023-04-05T13:58:20.311Z,101962.69
2023-04-05T14:00:47.314Z,101967.06
2023-04-05T14:03:13.848Z,101962.25
2023-04-05T14:05:40.295Z,101948.88
2023-04-05T14:08:06.935Z,101950.00
2023-04-05T14:10:33.478Z,101939.13
2023-04-05T14:13:00.178Z,101967.31
2023-04-05T14:15:27.804Z,101971.81
2023-04-05T14:17:54.362Z,101953.81
2023-04-05T14:20:21.054Z,101951.50
2023-04-05T14:22:47.594Z,101943.13
2023-04-05T14:25:14.195Z,101950.59
2023-04-05T14:27:42.414Z,101924.84
2023-04-05T14:30:11.096Z,101954.06
2023-04-05T14:32:37.920Z,101936.69
2023-04-05T14:35:04.690Z,101933.06
2023-04-05T14:37:31.225Z,101938.53
2023-04-05T14:39:57.684Z,101945.47
2023-04-05T14:42:31.314Z,101932.69
2023-04-05T14:45:04.215Z,101937.22
2023-04-05T14:47:31.097Z,101940.50
2023-04-05T14:49:57.718Z,101940.94
2023-04-05T14:52:24.316Z,101903.84
2023-04-05T14:54:51.083Z,101944.47
2023-04-05T14:57:17.649Z,101939.25
2023-04-05T14:59:44.195Z,101918.69
2023-04-05T15:02:11.385Z,101929.53
2023-04-05T15:04:38.035Z,101912.66
2023-04-05T15:07:04.504Z,101939.44
2023-04-05T15:09:31.131Z,101936.03
2023-04-05T15:11:57.666Z,101895.63
2023-04-05T15:14:31.690Z,101923.06
2023-04-05T15:16:59.001Z,101915.16
2023-04-05T15:19:25.740Z,101924.44
2023-04-05T15:21:52.289Z,101918.75
2023-04-05T15:24:18.846Z,101921.75
2023-04-05T15:26:45.442Z,101918.09
2023-04-05T15:29:11.973Z,101904.34
2023-04-05T15:31:39.403Z,101864.31
2023-04-05T15:34:08.280Z,101910.66
2023-04-05T15:36:36.157Z,101884.31
2023-04-05T15:39:04.839Z,101898.75
2023-04-05T15:41:33.800Z,101911.28
2023-04-05T15:44:01.199Z,101912.94
2023-04-05T15:46:29.147Z,101909.28
2023-04-05T15:48:56.142Z,101904.66
2023-04-05T15:51:22.877Z,101901.25
2023-04-05T15:53:49.615Z,101867.63
2023-04-05T15:56:16.201Z,101896.84
2023-04-05T15:58:42.794Z,101900.50
2023-04-05T16:01:09.374Z,101897.28
2023-04-05T16:03:36.169Z,101886.31
2023-04-05T16:06:02.895Z,101883.13
2023-04-05T16:08:29.645Z,101881.75
2023-04-05T16:10:57.037Z,101876.66
2023-04-05T16:13:23.884Z,101886.53
2023-04-05T16:15:50.565Z,101831.72
2023-04-05T16:18:19.492Z,101877.75
2023-04-05T16:20:45.992Z,101833.41
2023-04-05T16:23:12.542Z,101827.75
2023-04-05T16:25:39.057Z,101865.53
2023-04-05T16:28:06.914Z,101857.91
2023-04-05T16:30:33.589Z,101877.56
2023-04-05T16:33:00.162Z,101871.69
2023-04-05T16:35:26.669Z,101880.31
2023-04-05T16:37:53.231Z,101863.03
2023-04-05T16:40:19.726Z,101830.41
2023-04-05T16:42:46.176Z,101873.44
2023-04-05T16:45:12.640Z,101840.03
2023-04-05T16:47:39.243Z,101873.53
2023-04-05T16:50:06.581Z,101834.31
2023-04-05T16:52:33.062Z,101873.38
2023-04-05T16:54:59.613Z,101823.28
2023-04-05T16:57:26.317Z,101859.59
2023-04-05T16:59:53.015Z,101874.81
2023-04-05T17:02:19.638Z,101843.13
2023-04-05T17:04:46.960Z,101859.56
2023-04-05T17:07:13.492Z,101856.97
2023-04-05T17:09:39.969Z,101862.97
2023-04-05T17:12:06.611Z,101858.97
2023-04-05T17:14:35.748Z,101859.31
2023-04-05T17:17:02.314Z,101860.06
2023-04-05T17:19:28.998Z,101815.72
2023-04-05T17:21:55.654Z,101859.91
2023-04-05T17:24:22.368Z,101861.97
2023-04-05T17:26:48.966Z,101869.50
2023-04-05T17:29:17.568Z,101863.53
2023-04-05T17:31:44.644Z,101861.94
2023-04-05T17:34:13.421Z,101790.41
2023-04-05T17:36:40.291Z,101855.00
2023-04-05T17:39:07.190Z,101861.19
2023-04-05T17:41:33.879Z,101861.44
2023-04-05T17:44:00.400Z,101864.22
2023-04-05T17:46:39.696Z,101872.72
2023-04-05T17:49:08.116Z,101873.78
2023-04-05T17:51:34.662Z,101871.47
2023-04-05T17:54:01.432Z,101863.31
2023-04-05T17:56:27.928Z,101878.00
2023-04-05T17:58:54.395Z,101875.81
2023-04-05T18:01:21.322Z,101879.44
2023-04-05T18:03:47.981Z,101876.03
2023-04-05T18:06:16.407Z,101868.38
2023-04-05T18:08:42.975Z,101860.56
2023-04-05T18:11:09.436Z,101854.84
2023-04-05T18:13:36.148Z,101876.97
2023-04-05T18:16:02.791Z,101859.50
2023-04-05T18:18:29.374Z,101823.00
2023-04-05T18:20:56.420Z,101879.34
2023-04-05T18:23:24.775Z,101866.88
2023-04-05T18:25:53.475Z,101882.56
2023-04-05T18:28:23.180Z,101886.09
2023-04-05T18:30:51.114Z,101880.56
2023-04-05T18:33:18.251Z,101892.69
2023-04-05T18:35:51.868Z,101883.47
2023-04-05T18:38:19.470Z,101889.13
2023-04-05T18:40:46.011Z,101897.88
2023-04-05T18:43:12.796Z,101898.09
2023-04-05T18:45:39.558Z,101899.25
2023-04-05T18:48:06.287Z,101901.44
2023-04-05T18:50:32.969Z,101895.78
2023-04-05T18:52:59.461Z,101888.69
2023-04-05T18:55:26.027Z,101852.06
2023-04-05T18:57:52.508Z,101902.97
2023-04-05T19:00:19.333Z,101909.59
2023-04-05T19:02:45.898Z,101906.75
2023-04-05T19:05:12.610Z,101914.44
2023-04-05T19:07:39.291Z,101914.84
2023-04-05T19:10:06.799Z,101911.84
2023-04-05T19:12:33.307Z,101917.84
2023-04-05T19:14:59.852Z,101917.75
2023-04-05T19:17:26.565Z,101925.28
2023-04-05T19:19:53.090Z,101918.56
2023-04-05T19:22:19.522Z,101913.22
2023-04-05T19:24:46.119Z,101923.34
2023-04-05T19:27:12.688Z,101921.28
2023-04-05T19:29:39.376Z,101925.72
2023-04-05T19:32:06.934Z,101887.47
2023-04-05T19:34:33.484Z,101926.75
2023-04-05T19:37:00.858Z,101920.22
2023-04-05T19:39:27.509Z,101916.50
2023-04-05T19:41:54.059Z,101936.13
2023-04-05T19:44:48.589Z,101935.38
2023-04-05T19:47:18.472Z,101914.31
2023-04-05T19:49:45.389Z,101922.00
2023-04-05T19:52:33.364Z,101935.06
2023-04-05T19:55:00.344Z,101924.53
2023-04-05T19:57:27.780Z,101922.94
2023-04-05T19:59:54.649Z,101914.00
2023-04-05T20:02:37.089Z,101921.63
2023-04-05T20:05:33.977Z,101924.22
2023-04-05T20:08:00.532Z,101852.28
2023-04-05T20:10:41.117Z,101909.28
2023-04-05T20:13:08.280Z,101922.72
2023-04-05T20:15:37.000Z,101928.47
2023-04-05T20:18:08.701Z,101921.13
2023-04-05T20:20:36.458Z,101910.59
2023-04-05T20:23:06.946Z,101917.00
2023-04-05T20:25:43.169Z,101902.97
2023-04-05T20:28:36.445Z,101919.72
2023-04-05T20:31:06.999Z,101911.47
2023-04-05T20:33:44.251Z,101915.47
2023-04-05T20:36:17.546Z,101905.28
2023-04-05T20:38:45.934Z,101903.91
2023-04-05T20:41:13.936Z,101901.72
2023-04-05T20:43:41.883Z,101908.03
2023-04-05T20:46:08.645Z,101880.97
2023-04-05T20:48:36.411Z,101905.00
2023-04-05T20:51:06.934Z,101870.78
2023-04-05T20:53:34.165Z,101887.34
2023-04-05T20:56:00.692Z,101899.34
2023-04-05T20:58:27.796Z,101886.34
2023-04-05T21:00:54.949Z,101890.91
2023-04-05T21:03:21.985Z,101899.78
2023-04-05T21:05:48.967Z,101874.75
2023-04-05T21:08:16.261Z,101857.97
2023-04-05T21:10:42.851Z,101886.97
2023-04-05T21:13:09.354Z,101875.84
2023-04-05T21:15:36.116Z,101885.31
2023-04-05T21:18:04.445Z,101869.88
2023-04-05T21:20:31.605Z,101871.03
2023-04-05T21:22:58.779Z,101878.03
2023-04-05T21:25:25.550Z,101846.50
2023-04-05T21:27:52.243Z,101876.00
2023-04-05T21:30:18.934Z,101870.84
2023-04-05T21:32:45.515Z,101868.28
2023-04-05T21:35:12.165Z,101836.56
2023-04-05T21:37:38.705Z,101873.56
2023-04-05T21:40:05.826Z,101862.28
2023-04-05T21:42:32.946Z,101860.72
2023-04-05T21:44:59.612Z,101870.16
2023-04-05T21:47:26.087Z,101864.22
2023-04-05T21:49:52.849Z,101865.94
2023-04-05T21:52:19.419Z,101844.63
2023-04-05T21:54:46.309Z,101845.56
2023-04-05T21:57:12.808Z,101861.13
2023-04-05T21:59:39.441Z,101860.72
2023-04-05T22:02:07.378Z,101811.78
2023-04-05T22:04:34.878Z,101866.06
2023-04-05T22:07:01.330Z,101850.66
2023-04-05T22:09:31.561Z,101863.84
2023-04-05T22:11:58.668Z,101857.56
2023-04-05T22:14:26.365Z,101867.81
2023-04-05T22:16:53.439Z,101861.03
2023-04-05T22:19:21.277Z,101849.06
2023-04-05T22:21:47.931Z,101851.84
2023-04-05T22:24:14.801Z,101835.94
2023-04-05T22:26:42.221Z,101808.56
2023-04-05T22:29:08.952Z,101844.06
2023-04-05T22:31:35.985Z,101839.88
2023-04-05T22:34:02.493Z,101851.50
2023-04-05T22:36:29.057Z,101852.63
2023-04-05T22:38:55.817Z,101849.41
2023-04-05T22:41:22.278Z,101844.66
2023-04-05T22:43:48.802Z,101849.19
2023-04-05T22:46:15.346Z,101848.53
2023-04-05T22:48:44.321Z,101854.00
2023-04-05T22:51:11.165Z,101817.78
2023-04-05T22:53:37.663Z,101834.44
2023-04-05T22:56:04.230Z,101824.09
2023-04-05T22:58:32.714Z,101814.31
2023-04-05T23:00:59.633Z,101840.84
2023-04-05T23:03:26.545Z,101848.03
2023-04-05T23:05:52.987Z,101847.31
2023-04-05T23:08:19.491Z,101825.72
2023-04-05T23:10:47.000Z,101796.06
2023-04-05T23:13:13.530Z,101834.78
2023-04-05T23:15:40.070Z,101839.22
2023-04-05T23:18:06.668Z,101835.03
2023-04-05T23:20:33.130Z,101833.44
2023-04-05T23:23:00.207Z,101837.16
2023-04-05T23:25:26.786Z,101808.97
2023-04-05T23:27:54.455Z,101836.56
2023-04-05T23:30:21.112Z,101835.84
2023-04-05T23:32:47.629Z,101828.06
2023-04-05T23:35:15.395Z,101792.44
2023-04-05T23:37:41.873Z,101817.97
2023-04-05T23:40:09.011Z,101826.81
2023-04-05T23:42:35.475Z,101819.09
2023-04-05T23:45:04.176Z,101806.44
2023-04-05T23:47:30.902Z,101801.53
2023-04-05T23:49:57.452Z,101814.19
2023-04-05T23:52:23.954Z,101812.75
2023-04-05T23:54:50.656Z,101790.38
2023-04-05T23:57:17.145Z,101797.25
2023-04-05T23:59:43.683Z,101802.72
